Airfield :
LOGIN :

Register | Disclaimer

   EN    FR    IT 

 










Legend :    VFR   Marginal VFR   IFR   Intensive IFR   Very Intensive IFR
Visi :
Ceiling :
>= 8 km
>= 3000ft
5 to 8 km
1000 to 3000 ft
1500m to 5 km
500 to 1000 ft
800 to 1500m
200 to 500 ft
< 800m
< 200 ft
Symbols :   Thunderstorms  Fog  Heavy snow  Heavy precipitations  Wind > 20 kt
SIGMETs :     Misc.  Thunderstorms  Icing  Turbulence  Mountain Waves  Volcanic Ashes







- Airport Elevation : 1521 ft
- IATA code : NCY
- Download approach charts


LFLP - Annecy

CURRENT METAR :
  • 141700Z AUTO 04008KT 9999 BKN045 OVC062 23/14 Q1018 TEMPO SCT035TCU

EXPIRED METARs :
  • 141630Z AUTO 34006KT 280V020 9999 SCT044 BKN052 BKN062 24/14 Q1018 TEMPO SCT035TCU
  • 141600Z AUTO 04006KT 360V070 9999 SCT043 BKN054 OVC096 23/16 Q1018 TEMPO SCT035TCU
  • 141530Z AUTO 05003KT 330V110 9999 FEW037 SCT043 BKN088 23/15 Q1018 TEMPO SCT035TCU
  • 141500Z AUTO 04005KT 340V080 9999 SCT072 BKN090 23/15 Q1018 TEMPO SCT035TCU
  • 141430Z AUTO 35007KT 280V040 9999 FEW054/// SCT070/// OVC094/// ///TCU 22/14 Q1018 NOSIG

TAF TAF LFLP
Valid from the 14 at 15:00 until the 15 at 15:00 UTC


141400Z 1415/1515 34008KT 9999 SCT035 SCT090
TEMPO 1415/1418 -SHRA SCT035TCU
PROB30
TEMPO 1503/1507 3000 MIFG BKN025
No reported NOTAMs for that airfield.



MET'MAP, your aeronautical weather chart ! - Copyright ORBIFLY December 2007 - Disclaimer

ORBIFLY MET'MAP TEAM :

Programming & Development : Alexandra Zaïnal
Concept & Development : Baudouin d'Aumeries
Co-Development & Prog : Marc-Olivier Méhu
Technical & hardware support : Manuel Goepfert

Contact : metmap@orbifly.com




SOURCES & CREDITS :

   NOAA